sensor_id;sensor_type;location;lat;lon;timestamp;P1;durP1;ratioP1;P2;durP2;ratioP2
6642;SDS011;3357;48.050;7.800;2023-11-21T00:00:01;5.53;;;1.50;;
6642;SDS011;3357;48.050;7.800;2023-11-21T00:02:26;3.40;;;1.03;;
6642;SDS011;3357;48.050;7.800;2023-11-21T00:04:53;5.43;;;1.20;;
6642;SDS011;3357;48.050;7.800;2023-11-21T00:07:18;2.93;;;0.90;;
6642;SDS011;3357;48.050;7.800;2023-11-21T00:09:43;4.67;;;0.87;;
6642;SDS011;3357;48.050;7.800;2023-11-21T00:12:09;8.17;;;1.13;;
6642;SDS011;3357;48.050;7.800;2023-11-21T00:14:35;4.10;;;0.90;;
6642;SDS011;3357;48.050;7.800;2023-11-21T00:17:01;2.27;;;1.00;;
6642;SDS011;3357;48.050;7.800;2023-11-21T00:19:27;2.00;;;0.90;;
6642;SDS011;3357;48.050;7.800;2023-11-21T00:21:52;4.37;;;1.10;;
6642;SDS011;3357;48.050;7.800;2023-11-21T00:24:17;2.13;;;0.90;;
6642;SDS011;3357;48.050;7.800;2023-11-21T00:26:43;3.33;;;1.20;;
6642;SDS011;3357;48.050;7.800;2023-11-21T00:29:08;8.30;;;1.53;;
6642;SDS011;3357;48.050;7.800;2023-11-21T00:31:34;6.90;;;1.47;;
6642;SDS011;3357;48.050;7.800;2023-11-21T00:34:02;11.43;;;1.83;;
6642;SDS011;3357;48.050;7.800;2023-11-21T00:36:28;5.40;;;1.30;;
6642;SDS011;3357;48.050;7.800;2023-11-21T00:38:53;5.17;;;1.00;;
6642;SDS011;3357;48.050;7.800;2023-11-21T00:41:20;12.50;;;1.00;;
6642;SDS011;3357;48.050;7.800;2023-11-21T00:43:46;4.80;;;0.93;;
6642;SDS011;3357;48.050;7.800;2023-11-21T00:46:11;5.07;;;1.27;;
6642;SDS011;3357;48.050;7.800;2023-11-21T00:48:36;3.27;;;0.80;;
6642;SDS011;3357;48.050;7.800;2023-11-21T00:51:01;2.47;;;0.80;;
6642;SDS011;3357;48.050;7.800;2023-11-21T00:53:27;3.23;;;0.83;;
6642;SDS011;3357;48.050;7.800;2023-11-21T00:55:52;6.67;;;1.17;;
6642;SDS011;3357;48.050;7.800;2023-11-21T00:58:22;3.60;;;0.83;;
6642;SDS011;3357;48.050;7.800;2023-11-21T01:00:47;7.27;;;1.10;;
6642;SDS011;3357;48.050;7.800;2023-11-21T01:03:13;8.10;;;1.10;;
6642;SDS011;3357;48.050;7.800;2023-11-21T01:05:38;6.93;;;0.83;;
6642;SDS011;3357;48.050;7.800;2023-11-21T01:08:04;4.67;;;0.80;;
6642;SDS011;3357;48.050;7.800;2023-11-21T01:10:30;6.23;;;1.73;;
6642;SDS011;3357;48.050;7.800;2023-11-21T01:12:55;6.27;;;1.27;;
6642;SDS011;3357;48.050;7.800;2023-11-21T01:15:22;5.27;;;0.90;;
6642;SDS011;3357;48.050;7.800;2023-11-21T01:17:48;4.47;;;0.93;;
6642;SDS011;3357;48.050;7.800;2023-11-21T01:20:13;6.60;;;0.83;;
6642;SDS011;3357;48.050;7.800;2023-11-21T01:22:38;3.70;;;0.80;;
6642;SDS011;3357;48.050;7.800;2023-11-21T01:25:04;3.30;;;0.70;;
6642;SDS011;3357;48.050;7.800;2023-11-21T01:27:32;0.57;;;0.57;;
6642;SDS011;3357;48.050;7.800;2023-11-21T01:30:01;5.50;;;0.70;;
6642;SDS011;3357;48.050;7.800;2023-11-21T01:32:32;1.80;;;0.60;;
6642;SDS011;3357;48.050;7.800;2023-11-21T01:34:57;1.20;;;0.90;;
6642;SDS011;3357;48.050;7.800;2023-11-21T01:37:22;1.23;;;0.60;;
6642;SDS011;3357;48.050;7.800;2023-11-21T01:39:48;2.30;;;0.73;;
6642;SDS011;3357;48.050;7.800;2023-11-21T01:42:13;2.40;;;0.70;;
6642;SDS011;3357;48.050;7.800;2023-11-21T01:44:39;2.00;;;0.50;;
6642;SDS011;3357;48.050;7.800;2023-11-21T01:47:05;3.33;;;0.60;;
6642;SDS011;3357;48.050;7.800;2023-11-21T01:49:34;3.83;;;0.60;;
6642;SDS011;3357;48.050;7.800;2023-11-21T01:52:00;1.80;;;0.50;;
6642;SDS011;3357;48.050;7.800;2023-11-21T01:54:26;1.60;;;0.57;;
6642;SDS011;3357;48.050;7.800;2023-11-21T01:56:52;1.77;;;0.60;;
6642;SDS011;3357;48.050;7.800;2023-11-21T01:59:21;1.53;;;0.50;;
6642;SDS011;3357;48.050;7.800;2023-11-21T02:01:46;1.03;;;0.50;;
6642;SDS011;3357;48.050;7.800;2023-11-21T02:04:12;1.47;;;0.60;;
6642;SDS011;3357;48.050;7.800;2023-11-21T02:06:38;2.50;;;0.50;;
6642;SDS011;3357;48.050;7.800;2023-11-21T02:09:04;2.27;;;0.60;;
6642;SDS011;3357;48.050;7.800;2023-11-21T02:11:29;2.80;;;0.50;;
6642;SDS011;3357;48.050;7.800;2023-11-21T02:13:55;1.40;;;0.60;;
6642;SDS011;3357;48.050;7.800;2023-11-21T02:16:20;2.90;;;0.50;;
6642;SDS011;3357;48.050;7.800;2023-11-21T02:18:49;1.90;;;0.50;;
6642;SDS011;3357;48.050;7.800;2023-11-21T02:21:14;2.10;;;0.80;;
6642;SDS011;3357;48.050;7.800;2023-11-21T02:23:39;2.47;;;0.70;;
6642;SDS011;3357;48.050;7.800;2023-11-21T02:26:09;5.80;;;1.10;;
6642;SDS011;3357;48.050;7.800;2023-11-21T02:28:35;0.50;;;0.50;;
6642;SDS011;3357;48.050;7.800;2023-11-21T02:31:00;6.03;;;0.70;;
6642;SDS011;3357;48.050;7.800;2023-11-21T02:33:27;2.13;;;0.60;;
6642;SDS011;3357;48.050;7.800;2023-11-21T02:35:53;1.27;;;0.60;;
6642;SDS011;3357;48.050;7.800;2023-11-21T02:38:19;2.57;;;0.60;;
6642;SDS011;3357;48.050;7.800;2023-11-21T02:40:45;3.40;;;0.60;;
6642;SDS011;3357;48.050;7.800;2023-11-21T02:43:11;0.40;;;0.40;;
6642;SDS011;3357;48.050;7.800;2023-11-21T02:45:36;1.23;;;0.60;;
6642;SDS011;3357;48.050;7.800;2023-11-21T02:48:01;2.20;;;0.57;;
6642;SDS011;3357;48.050;7.800;2023-11-21T02:50:27;2.30;;;0.50;;
6642;SDS011;3357;48.050;7.800;2023-11-21T02:52:52;2.87;;;0.60;;
6642;SDS011;3357;48.050;7.800;2023-11-21T02:55:17;1.40;;;0.60;;
6642;SDS011;3357;48.050;7.800;2023-11-21T02:57:43;3.63;;;0.60;;
6642;SDS011;3357;48.050;7.800;2023-11-21T03:00:08;3.70;;;0.60;;
6642;SDS011;3357;48.050;7.800;2023-11-21T03:02:39;1.67;;;0.60;;
6642;SDS011;3357;48.050;7.800;2023-11-21T03:05:06;2.73;;;0.70;;
6642;SDS011;3357;48.050;7.800;2023-11-21T03:07:33;2.30;;;0.60;;
6642;SDS011;3357;48.050;7.800;2023-11-21T03:09:58;2.00;;;0.60;;
6642;SDS011;3357;48.050;7.800;2023-11-21T03:12:23;5.50;;;0.67;;
6642;SDS011;3357;48.050;7.800;2023-11-21T03:14:48;0.57;;;0.50;;
6642;SDS011;3357;48.050;7.800;2023-11-21T03:17:13;3.70;;;0.53;;
6642;SDS011;3357;48.050;7.800;2023-11-21T03:19:41;2.20;;;0.60;;
6642;SDS011;3357;48.050;7.800;2023-11-21T03:22:06;4.47;;;0.70;;
6642;SDS011;3357;48.050;7.800;2023-11-21T03:24:32;2.50;;;0.80;;
6642;SDS011;3357;48.050;7.800;2023-11-21T03:26:57;3.80;;;0.70;;
6642;SDS011;3357;48.050;7.800;2023-11-21T03:29:22;2.87;;;0.60;;
6642;SDS011;3357;48.050;7.800;2023-11-21T03:31:48;5.70;;;0.77;;
6642;SDS011;3357;48.050;7.800;2023-11-21T03:34:27;3.50;;;0.60;;
6642;SDS011;3357;48.050;7.800;2023-11-21T03:36:52;3.73;;;0.70;;
6642;SDS011;3357;48.050;7.800;2023-11-21T03:39:19;2.20;;;0.60;;
6642;SDS011;3357;48.050;7.800;2023-11-21T03:41:44;1.17;;;0.70;;
6642;SDS011;3357;48.050;7.800;2023-11-21T03:44:10;1.10;;;0.43;;
6642;SDS011;3357;48.050;7.800;2023-11-21T03:46:35;2.87;;;0.70;;
6642;SDS011;3357;48.050;7.800;2023-11-21T03:49:00;1.43;;;0.50;;
6642;SDS011;3357;48.050;7.800;2023-11-21T03:51:26;1.30;;;0.50;;
6642;SDS011;3357;48.050;7.800;2023-11-21T03:53:51;1.13;;;0.83;;
6642;SDS011;3357;48.050;7.800;2023-11-21T03:56:16;4.47;;;1.60;;
6642;SDS011;3357;48.050;7.800;2023-11-21T03:58:41;2.20;;;0.60;;
6642;SDS011;3357;48.050;7.800;2023-11-21T04:01:07;0.60;;;0.50;;
6642;SDS011;3357;48.050;7.800;2023-11-21T04:03:32;1.40;;;0.77;;
6642;SDS011;3357;48.050;7.800;2023-11-21T04:05:57;1.90;;;0.63;;
6642;SDS011;3357;48.050;7.800;2023-11-21T04:08:22;7.47;;;0.80;;
6642;SDS011;3357;48.050;7.800;2023-11-21T04:10:48;2.10;;;0.70;;
6642;SDS011;3357;48.050;7.800;2023-11-21T04:13:13;1.13;;;0.50;;
6642;SDS011;3357;48.050;7.800;2023-11-21T04:15:39;1.17;;;0.50;;
6642;SDS011;3357;48.050;7.800;2023-11-21T04:18:04;3.07;;;0.60;;
6642;SDS011;3357;48.050;7.800;2023-11-21T04:20:29;0.83;;;0.50;;
6642;SDS011;3357;48.050;7.800;2023-11-21T04:22:55;3.73;;;0.67;;
6642;SDS011;3357;48.050;7.800;2023-11-21T04:25:20;1.17;;;0.70;;
6642;SDS011;3357;48.050;7.800;2023-11-21T04:27:45;2.63;;;0.60;;
6642;SDS011;3357;48.050;7.800;2023-11-21T04:30:11;0.63;;;0.57;;
6642;SDS011;3357;48.050;7.800;2023-11-21T04:32:38;1.97;;;0.60;;
6642;SDS011;3357;48.050;7.800;2023-11-21T04:35:04;3.17;;;0.67;;
6642;SDS011;3357;48.050;7.800;2023-11-21T04:37:29;3.13;;;0.50;;
6642;SDS011;3357;48.050;7.800;2023-11-21T04:39:55;2.40;;;0.60;;
6642;SDS011;3357;48.050;7.800;2023-11-21T04:42:20;2.90;;;0.70;;
6642;SDS011;3357;48.050;7.800;2023-11-21T04:44:45;1.80;;;0.60;;
6642;SDS011;3357;48.050;7.800;2023-11-21T04:47:10;1.60;;;0.60;;
6642;SDS011;3357;48.050;7.800;2023-11-21T04:49:36;2.13;;;0.70;;
6642;SDS011;3357;48.050;7.800;2023-11-21T04:52:01;1.00;;;0.50;;
6642;SDS011;3357;48.050;7.800;2023-11-21T04:54:28;0.50;;;0.50;;
6642;SDS011;3357;48.050;7.800;2023-11-21T04:56:54;1.90;;;0.60;;
6642;SDS011;3357;48.050;7.800;2023-11-21T04:59:19;1.20;;;0.60;;
6642;SDS011;3357;48.050;7.800;2023-11-21T05:01:44;2.77;;;0.60;;
6642;SDS011;3357;48.050;7.800;2023-11-21T05:04:09;0.67;;;0.50;;
6642;SDS011;3357;48.050;7.800;2023-11-21T05:06:35;1.60;;;0.50;;
6642;SDS011;3357;48.050;7.800;2023-11-21T05:09:00;0.80;;;0.60;;
6642;SDS011;3357;48.050;7.800;2023-11-21T05:11:25;0.50;;;0.50;;
6642;SDS011;3357;48.050;7.800;2023-11-21T05:13:51;4.53;;;0.70;;
6642;SDS011;3357;48.050;7.800;2023-11-21T05:16:17;3.93;;;0.40;;
6642;SDS011;3357;48.050;7.800;2023-11-21T05:18:43;0.50;;;0.50;;
6642;SDS011;3357;48.050;7.800;2023-11-21T05:21:09;0.53;;;0.47;;
6642;SDS011;3357;48.050;7.800;2023-11-21T05:23:34;2.73;;;0.50;;
6642;SDS011;3357;48.050;7.800;2023-11-21T05:26:00;3.80;;;0.97;;
6642;SDS011;3357;48.050;7.800;2023-11-21T05:28:25;2.40;;;0.60;;
6642;SDS011;3357;48.050;7.800;2023-11-21T05:30:50;8.50;;;0.70;;
6642;SDS011;3357;48.050;7.800;2023-11-21T05:33:16;3.80;;;0.70;;
6642;SDS011;3357;48.050;7.800;2023-11-21T05:35:41;0.80;;;0.80;;
6642;SDS011;3357;48.050;7.800;2023-11-21T05:38:06;2.33;;;0.77;;
6642;SDS011;3357;48.050;7.800;2023-11-21T05:40:32;1.77;;;0.70;;
6642;SDS011;3357;48.050;7.800;2023-11-21T05:42:58;1.10;;;0.70;;
6642;SDS011;3357;48.050;7.800;2023-11-21T05:45:23;1.70;;;0.60;;
6642;SDS011;3357;48.050;7.800;2023-11-21T05:47:48;2.93;;;0.70;;
6642;SDS011;3357;48.050;7.800;2023-11-21T05:50:14;1.63;;;0.70;;
6642;SDS011;3357;48.050;7.800;2023-11-21T05:52:41;3.77;;;0.80;;
6642;SDS011;3357;48.050;7.800;2023-11-21T05:55:08;1.07;;;0.80;;
6642;SDS011;3357;48.050;7.800;2023-11-21T05:57:34;1.33;;;0.70;;
6642;SDS011;3357;48.050;7.800;2023-11-21T06:00:02;2.43;;;0.90;;
6642;SDS011;3357;48.050;7.800;2023-11-21T06:03:03;2.53;;;0.70;;
6642;SDS011;3357;48.050;7.800;2023-11-21T06:05:31;1.83;;;0.67;;
6642;SDS011;3357;48.050;7.800;2023-11-21T06:07:58;0.50;;;0.50;;
6642;SDS011;3357;48.050;7.800;2023-11-21T06:10:24;1.43;;;0.87;;
6642;SDS011;3357;48.050;7.800;2023-11-21T06:12:50;0.90;;;0.60;;
6642;SDS011;3357;48.050;7.800;2023-11-21T06:15:15;1.27;;;0.60;;
6642;SDS011;3357;48.050;7.800;2023-11-21T06:17:44;1.63;;;0.70;;
6642;SDS011;3357;48.050;7.800;2023-11-21T06:20:10;1.93;;;0.70;;
6642;SDS011;3357;48.050;7.800;2023-11-21T06:22:39;1.43;;;0.53;;
6642;SDS011;3357;48.050;7.800;2023-11-21T06:25:06;1.17;;;0.60;;
6642;SDS011;3357;48.050;7.800;2023-11-21T06:27:33;1.40;;;0.70;;
6642;SDS011;3357;48.050;7.800;2023-11-21T06:29:59;4.93;;;0.80;;
6642;SDS011;3357;48.050;7.800;2023-11-21T06:32:25;3.30;;;1.03;;
6642;SDS011;3357;48.050;7.800;2023-11-21T06:34:51;5.53;;;0.90;;
6642;SDS011;3357;48.050;7.800;2023-11-21T06:37:19;2.60;;;0.83;;
6642;SDS011;3357;48.050;7.800;2023-11-21T06:39:47;2.00;;;0.67;;
6642;SDS011;3357;48.050;7.800;2023-11-21T06:42:13;1.93;;;0.80;;
6642;SDS011;3357;48.050;7.800;2023-11-21T06:44:40;2.00;;;0.90;;
6642;SDS011;3357;48.050;7.800;2023-11-21T06:47:06;1.33;;;0.93;;
6642;SDS011;3357;48.050;7.800;2023-11-21T06:49:31;2.20;;;0.70;;
6642;SDS011;3357;48.050;7.800;2023-11-21T06:51:57;2.57;;;0.70;;
6642;SDS011;3357;48.050;7.800;2023-11-21T06:54:22;2.00;;;0.70;;
6642;SDS011;3357;48.050;7.800;2023-11-21T06:56:47;1.07;;;0.70;;
6642;SDS011;3357;48.050;7.800;2023-11-21T06:59:13;1.80;;;0.80;;
6642;SDS011;3357;48.050;7.800;2023-11-21T07:01:38;0.70;;;0.63;;
6642;SDS011;3357;48.050;7.800;2023-11-21T07:04:06;2.43;;;0.60;;
6642;SDS011;3357;48.050;7.800;2023-11-21T07:06:32;1.10;;;0.60;;
6642;SDS011;3357;48.050;7.800;2023-11-21T07:08:57;3.17;;;0.90;;
6642;SDS011;3357;48.050;7.800;2023-11-21T07:11:23;6.43;;;1.27;;
6642;SDS011;3357;48.050;7.800;2023-11-21T07:13:49;4.10;;;1.07;;
6642;SDS011;3357;48.050;7.800;2023-11-21T07:16:17;3.47;;;1.23;;
6642;SDS011;3357;48.050;7.800;2023-11-21T07:18:43;2.80;;;0.90;;
6642;SDS011;3357;48.050;7.800;2023-11-21T07:21:09;3.80;;;0.93;;
6642;SDS011;3357;48.050;7.800;2023-11-21T07:23:36;4.27;;;1.90;;
6642;SDS011;3357;48.050;7.800;2023-11-21T07:26:02;6.03;;;4.77;;
6642;SDS011;3357;48.050;7.800;2023-11-21T07:28:28;5.33;;;3.50;;
6642;SDS011;3357;48.050;7.800;2023-11-21T07:30:54;9.53;;;3.80;;
6642;SDS011;3357;48.050;7.800;2023-11-21T07:33:19;1.77;;;1.30;;
6642;SDS011;3357;48.050;7.800;2023-11-21T07:35:44;2.77;;;1.07;;
6642;SDS011;3357;48.050;7.800;2023-11-21T07:38:09;0.80;;;0.80;;
6642;SDS011;3357;48.050;7.800;2023-11-21T07:40:35;1.83;;;1.33;;
6642;SDS011;3357;48.050;7.800;2023-11-21T07:43:00;1.00;;;0.80;;
6642;SDS011;3357;48.050;7.800;2023-11-21T07:45:26;1.10;;;0.73;;
6642;SDS011;3357;48.050;7.800;2023-11-21T07:47:53;4.00;;;0.90;;
6642;SDS011;3357;48.050;7.800;2023-11-21T07:50:19;1.90;;;0.90;;
6642;SDS011;3357;48.050;7.800;2023-11-21T07:52:45;1.73;;;0.80;;
6642;SDS011;3357;48.050;7.800;2023-11-21T07:55:10;6.20;;;1.57;;
6642;SDS011;3357;48.050;7.800;2023-11-21T07:57:36;2.20;;;1.00;;
6642;SDS011;3357;48.050;7.800;2023-11-21T08:00:02;1.97;;;1.00;;
6642;SDS011;3357;48.050;7.800;2023-11-21T08:02:28;0.80;;;0.80;;
6642;SDS011;3357;48.050;7.800;2023-11-21T08:04:54;0.90;;;0.83;;
6642;SDS011;3357;48.050;7.800;2023-11-21T08:07:21;2.10;;;0.90;;
6642;SDS011;3357;48.050;7.800;2023-11-21T08:09:47;9.73;;;1.17;;
6642;SDS011;3357;48.050;7.800;2023-11-21T08:12:15;5.00;;;3.03;;
6642;SDS011;3357;48.050;7.800;2023-11-21T08:14:40;6.07;;;2.30;;
6642;SDS011;3357;48.050;7.800;2023-11-21T08:17:05;5.20;;;2.50;;
6642;SDS011;3357;48.050;7.800;2023-11-21T08:19:31;3.60;;;2.93;;
6642;SDS011;3357;48.050;7.800;2023-11-21T08:21:58;3.70;;;2.17;;
6642;SDS011;3357;48.050;7.800;2023-11-21T08:24:24;1.83;;;1.50;;
6642;SDS011;3357;48.050;7.800;2023-11-21T08:26:50;3.40;;;1.60;;
6642;SDS011;3357;48.050;7.800;2023-11-21T08:29:17;3.73;;;1.87;;
6642;SDS011;3357;48.050;7.800;2023-11-21T08:31:43;4.97;;;1.53;;
6642;SDS011;3357;48.050;7.800;2023-11-21T08:34:11;2.60;;;1.80;;
6642;SDS011;3357;48.050;7.800;2023-11-21T08:36:46;1.97;;;1.70;;
6642;SDS011;3357;48.050;7.800;2023-11-21T08:39:12;1.63;;;1.53;;
6642;SDS011;3357;48.050;7.800;2023-11-21T08:41:38;1.93;;;1.83;;
6642;SDS011;3357;48.050;7.800;2023-11-21T08:44:04;2.57;;;1.70;;
6642;SDS011;3357;48.050;7.800;2023-11-21T08:46:33;1.83;;;1.13;;
6642;SDS011;3357;48.050;7.800;2023-11-21T08:49:00;3.60;;;1.20;;
6642;SDS011;3357;48.050;7.800;2023-11-21T08:51:26;1.53;;;1.37;;
6642;SDS011;3357;48.050;7.800;2023-11-21T08:53:51;1.70;;;1.40;;
6642;SDS011;3357;48.050;7.800;2023-11-21T08:56:18;1.20;;;1.10;;
6642;SDS011;3357;48.050;7.800;2023-11-21T08:58:45;1.83;;;1.10;;
6642;SDS011;3357;48.050;7.800;2023-11-21T09:01:12;5.03;;;1.20;;
6642;SDS011;3357;48.050;7.800;2023-11-21T09:03:38;1.57;;;1.20;;
6642;SDS011;3357;48.050;7.800;2023-11-21T09:06:03;1.37;;;1.30;;
6642;SDS011;3357;48.050;7.800;2023-11-21T09:08:29;2.83;;;1.20;;
6642;SDS011;3357;48.050;7.800;2023-11-21T09:10:55;4.60;;;1.23;;
6642;SDS011;3357;48.050;7.800;2023-11-21T09:13:20;1.90;;;1.20;;
6642;SDS011;3357;48.050;7.800;2023-11-21T09:15:46;1.63;;;1.10;;
6642;SDS011;3357;48.050;7.800;2023-11-21T09:18:14;1.63;;;1.30;;
6642;SDS011;3357;48.050;7.800;2023-11-21T09:20:40;1.50;;;1.23;;
6642;SDS011;3357;48.050;7.800;2023-11-21T09:23:07;3.23;;;1.30;;
6642;SDS011;3357;48.050;7.800;2023-11-21T09:25:32;3.07;;;1.47;;
6642;SDS011;3357;48.050;7.800;2023-11-21T09:27:58;1.37;;;1.20;;
6642;SDS011;3357;48.050;7.800;2023-11-21T09:30:24;2.77;;;1.40;;
6642;SDS011;3357;48.050;7.800;2023-11-21T09:32:50;2.13;;;1.00;;
6642;SDS011;3357;48.050;7.800;2023-11-21T09:35:16;1.20;;;1.20;;
6642;SDS011;3357;48.050;7.800;2023-11-21T09:37:43;4.13;;;1.00;;
6642;SDS011;3357;48.050;7.800;2023-11-21T09:40:10;1.70;;;1.10;;
6642;SDS011;3357;48.050;7.800;2023-11-21T09:42:49;1.87;;;1.70;;
6642;SDS011;3357;48.050;7.800;2023-11-21T09:45:21;2.50;;;1.20;;
6642;SDS011;3357;48.050;7.800;2023-11-21T09:47:51;4.40;;;1.43;;
6642;SDS011;3357;48.050;7.800;2023-11-21T09:50:17;1.80;;;1.30;;
6642;SDS011;3357;48.050;7.800;2023-11-21T09:55:19;1.10;;;1.10;;
6642;SDS011;3357;48.050;7.800;2023-11-21T09:57:46;3.03;;;2.07;;
6642;SDS011;3357;48.050;7.800;2023-11-21T10:00:13;1.50;;;1.40;;
6642;SDS011;3357;48.050;7.800;2023-11-21T10:02:42;0.87;;;0.83;;
6642;SDS011;3357;48.050;7.800;2023-11-21T10:05:08;0.90;;;0.90;;
6642;SDS011;3357;48.050;7.800;2023-11-21T10:07:36;0.63;;;0.63;;
6642;SDS011;3357;48.050;7.800;2023-11-21T10:10:02;1.40;;;0.70;;
6642;SDS011;3357;48.050;7.800;2023-11-21T10:12:29;0.60;;;0.60;;
6642;SDS011;3357;48.050;7.800;2023-11-21T10:14:54;0.90;;;0.83;;
6642;SDS011;3357;48.050;7.800;2023-11-21T10:17:23;0.90;;;0.90;;
6642;SDS011;3357;48.050;7.800;2023-11-21T10:19:51;1.27;;;0.80;;
6642;SDS011;3357;48.050;7.800;2023-11-21T10:22:18;4.13;;;0.77;;
6642;SDS011;3357;48.050;7.800;2023-11-21T10:24:45;0.97;;;0.87;;
6642;SDS011;3357;48.050;7.800;2023-11-21T10:27:10;1.00;;;1.00;;
6642;SDS011;3357;48.050;7.800;2023-11-21T10:29:35;1.17;;;0.90;;
6642;SDS011;3357;48.050;7.800;2023-11-21T10:32:04;0.90;;;0.70;;
6642;SDS011;3357;48.050;7.800;2023-11-21T10:34:30;0.77;;;0.70;;
6642;SDS011;3357;48.050;7.800;2023-11-21T10:36:56;1.37;;;0.70;;
6642;SDS011;3357;48.050;7.800;2023-11-21T10:39:23;2.83;;;2.33;;
6642;SDS011;3357;48.050;7.800;2023-11-21T10:41:53;5.00;;;2.23;;
6642;SDS011;3357;48.050;7.800;2023-11-21T10:44:19;1.30;;;1.20;;
6642;SDS011;3357;48.050;7.800;2023-11-21T10:46:49;1.53;;;0.87;;
6642;SDS011;3357;48.050;7.800;2023-11-21T10:49:19;0.70;;;0.70;;
6642;SDS011;3357;48.050;7.800;2023-11-21T10:51:45;0.80;;;0.70;;
6642;SDS011;3357;48.050;7.800;2023-11-21T10:54:10;0.90;;;0.90;;
6642;SDS011;3357;48.050;7.800;2023-11-21T10:56:37;1.20;;;1.10;;
6642;SDS011;3357;48.050;7.800;2023-11-21T10:59:05;3.50;;;1.40;;
6642;SDS011;3357;48.050;7.800;2023-11-21T11:01:35;1.60;;;1.50;;
6642;SDS011;3357;48.050;7.800;2023-11-21T11:04:01;6.47;;;2.60;;
6642;SDS011;3357;48.050;7.800;2023-11-21T11:06:30;6.13;;;2.40;;
6642;SDS011;3357;48.050;7.800;2023-11-21T11:08:57;3.50;;;1.13;;
6642;SDS011;3357;48.050;7.800;2023-11-21T11:11:24;2.20;;;1.20;;
6642;SDS011;3357;48.050;7.800;2023-11-21T11:13:50;2.07;;;1.87;;
6642;SDS011;3357;48.050;7.800;2023-11-21T11:16:16;2.67;;;2.47;;
6642;SDS011;3357;48.050;7.800;2023-11-21T11:18:42;1.63;;;1.10;;
6642;SDS011;3357;48.050;7.800;2023-11-21T11:32:51;2.67;;;1.10;;
6642;SDS011;3357;48.050;7.800;2023-11-21T11:37:56;1.97;;;1.77;;
6642;SDS011;3357;48.050;7.800;2023-11-21T11:40:22;1.40;;;1.30;;
6642;SDS011;3357;48.050;7.800;2023-11-21T11:43:01;1.90;;;1.80;;
6642;SDS011;3357;48.050;7.800;2023-11-21T11:45:33;3.27;;;2.97;;
6642;SDS011;3357;48.050;7.800;2023-11-21T11:48:00;2.67;;;2.47;;
6642;SDS011;3357;48.050;7.800;2023-11-21T11:50:26;1.43;;;1.33;;
6642;SDS011;3357;48.050;7.800;2023-11-21T11:52:55;1.13;;;1.03;;
6642;SDS011;3357;48.050;7.800;2023-11-21T11:55:22;2.80;;;1.20;;
6642;SDS011;3357;48.050;7.800;2023-11-21T11:57:49;1.60;;;1.50;;
6642;SDS011;3357;48.050;7.800;2023-11-21T12:00:18;2.60;;;2.40;;
6642;SDS011;3357;48.050;7.800;2023-11-21T12:02:46;3.43;;;2.50;;
6642;SDS011;3357;48.050;7.800;2023-11-21T12:05:13;1.07;;;1.07;;
6642;SDS011;3357;48.050;7.800;2023-11-21T12:07:43;0.93;;;0.93;;
6642;SDS011;3357;48.050;7.800;2023-11-21T12:10:25;1.23;;;1.10;;
6642;SDS011;3357;48.050;7.800;2023-11-21T12:12:56;2.20;;;1.13;;
6642;SDS011;3357;48.050;7.800;2023-11-21T12:15:23;1.03;;;1.03;;
6642;SDS011;3357;48.050;7.800;2023-11-21T12:17:49;1.00;;;1.00;;
6642;SDS011;3357;48.050;7.800;2023-11-21T12:20:15;1.30;;;1.20;;
6642;SDS011;3357;48.050;7.800;2023-11-21T12:25:14;1.40;;;1.30;;
6642;SDS011;3357;48.050;7.800;2023-11-21T12:27:41;1.77;;;1.67;;
6642;SDS011;3357;48.050;7.800;2023-11-21T12:30:08;1.30;;;1.20;;
6642;SDS011;3357;48.050;7.800;2023-11-21T12:32:38;2.63;;;1.63;;
6642;SDS011;3357;48.050;7.800;2023-11-21T12:35:05;1.63;;;1.53;;
6642;SDS011;3357;48.050;7.800;2023-11-21T12:37:31;2.27;;;2.17;;
6642;SDS011;3357;48.050;7.800;2023-11-21T12:39:57;1.90;;;1.80;;
6642;SDS011;3357;48.050;7.800;2023-11-21T12:42:23;3.73;;;3.00;;
6642;SDS011;3357;48.050;7.800;2023-11-21T12:45:06;5.77;;;4.10;;
6642;SDS011;3357;48.050;7.800;2023-11-21T12:47:34;7.13;;;3.77;;
6642;SDS011;3357;48.050;7.800;2023-11-21T12:50:01;3.40;;;2.30;;
6642;SDS011;3357;48.050;7.800;2023-11-21T12:52:27;2.30;;;2.17;;
6642;SDS011;3357;48.050;7.800;2023-11-21T12:54:53;1.50;;;1.40;;
6642;SDS011;3357;48.050;7.800;2023-11-21T12:57:18;1.50;;;1.40;;
6642;SDS011;3357;48.050;7.800;2023-11-21T12:59:45;3.57;;;2.40;;
6642;SDS011;3357;48.050;7.800;2023-11-21T13:02:12;2.37;;;1.60;;
6642;SDS011;3357;48.050;7.800;2023-11-21T13:04:39;2.00;;;1.90;;
6642;SDS011;3357;48.050;7.800;2023-11-21T13:07:05;2.23;;;2.03;;
6642;SDS011;3357;48.050;7.800;2023-11-21T13:09:39;3.90;;;1.80;;
6642;SDS011;3357;48.050;7.800;2023-11-21T13:12:06;2.63;;;2.43;;
6642;SDS011;3357;48.050;7.800;2023-11-21T13:14:33;2.43;;;2.27;;
6642;SDS011;3357;48.050;7.800;2023-11-21T13:16:59;2.60;;;2.40;;
6642;SDS011;3357;48.050;7.800;2023-11-21T13:19:24;2.17;;;1.70;;
6642;SDS011;3357;48.050;7.800;2023-11-21T13:21:49;2.70;;;2.50;;
6642;SDS011;3357;48.050;7.800;2023-11-21T13:24:15;3.87;;;2.70;;
6642;SDS011;3357;48.050;7.800;2023-11-21T13:26:41;6.10;;;2.23;;
6642;SDS011;3357;48.050;7.800;2023-11-21T13:29:07;4.17;;;3.77;;
6642;SDS011;3357;48.050;7.800;2023-11-21T13:31:33;5.47;;;3.23;;
6642;SDS011;3357;48.050;7.800;2023-11-21T13:34:01;5.27;;;3.03;;
6642;SDS011;3357;48.050;7.800;2023-11-21T13:36:30;6.10;;;2.90;;
6642;SDS011;3357;48.050;7.800;2023-11-21T13:38:57;7.37;;;3.80;;
6642;SDS011;3357;48.050;7.800;2023-11-21T13:41:23;2.37;;;2.17;;
6642;SDS011;3357;48.050;7.800;2023-11-21T13:43:55;1.80;;;1.70;;
6642;SDS011;3357;48.050;7.800;2023-11-21T13:46:28;2.30;;;2.10;;
6642;SDS011;3357;48.050;7.800;2023-11-21T13:48:59;4.03;;;1.90;;
6642;SDS011;3357;48.050;7.800;2023-11-21T13:51:25;1.67;;;1.57;;
6642;SDS011;3357;48.050;7.800;2023-11-21T13:54:09;1.60;;;1.50;;
6642;SDS011;3357;48.050;7.800;2023-11-21T13:56:35;3.23;;;2.33;;
6642;SDS011;3357;48.050;7.800;2023-11-21T13:59:01;2.77;;;1.90;;
6642;SDS011;3357;48.050;7.800;2023-11-21T14:01:34;2.30;;;1.80;;
6642;SDS011;3357;48.050;7.800;2023-11-21T14:04:18;2.00;;;1.40;;
6642;SDS011;3357;48.050;7.800;2023-11-21T14:06:43;1.40;;;1.30;;
6642;SDS011;3357;48.050;7.800;2023-11-21T14:09:18;1.60;;;1.50;;
6642;SDS011;3357;48.050;7.800;2023-11-21T14:11:51;2.63;;;1.23;;
6642;SDS011;3357;48.050;7.800;2023-11-21T14:14:21;6.07;;;1.40;;
6642;SDS011;3357;48.050;7.800;2023-11-21T14:16:49;1.73;;;1.63;;
6642;SDS011;3357;48.050;7.800;2023-11-21T14:19:15;2.50;;;2.30;;
6642;SDS011;3357;48.050;7.800;2023-11-21T14:21:41;2.40;;;1.80;;
6642;SDS011;3357;48.050;7.800;2023-11-21T14:24:11;2.73;;;2.50;;
6642;SDS011;3357;48.050;7.800;2023-11-21T14:26:44;1.90;;;1.77;;
6642;SDS011;3357;48.050;7.800;2023-11-21T14:29:11;2.93;;;2.17;;
6642;SDS011;3357;48.050;7.800;2023-11-21T14:31:39;2.37;;;2.20;;
6642;SDS011;3357;48.050;7.800;2023-11-21T14:34:05;2.40;;;2.00;;
6642;SDS011;3357;48.050;7.800;2023-11-21T14:36:32;8.60;;;5.70;;
6642;SDS011;3357;48.050;7.800;2023-11-21T14:38:57;2.70;;;2.40;;
6642;SDS011;3357;48.050;7.800;2023-11-21T14:41:23;2.43;;;2.23;;
6642;SDS011;3357;48.050;7.800;2023-11-21T14:43:52;13.10;;;5.97;;
6642;SDS011;3357;48.050;7.800;2023-11-21T14:46:19;7.13;;;4.50;;
6642;SDS011;3357;48.050;7.800;2023-11-21T14:48:44;6.80;;;3.53;;
6642;SDS011;3357;48.050;7.800;2023-11-21T14:51:23;14.23;;;7.20;;
6642;SDS011;3357;48.050;7.800;2023-11-21T14:53:51;5.87;;;4.10;;
6642;SDS011;3357;48.050;7.800;2023-11-21T14:56:20;9.37;;;7.20;;
6642;SDS011;3357;48.050;7.800;2023-11-21T14:58:53;10.77;;;6.80;;
6642;SDS011;3357;48.050;7.800;2023-11-21T15:01:20;6.67;;;5.13;;
6642;SDS011;3357;48.050;7.800;2023-11-21T15:04:00;8.33;;;6.17;;
6642;SDS011;3357;48.050;7.800;2023-11-21T15:06:25;17.67;;;10.13;;
6642;SDS011;3357;48.050;7.800;2023-11-21T15:08:55;15.03;;;9.20;;
6642;SDS011;3357;48.050;7.800;2023-11-21T15:11:34;11.20;;;6.37;;
6642;SDS011;3357;48.050;7.800;2023-11-21T15:13:59;5.23;;;3.53;;
6642;SDS011;3357;48.050;7.800;2023-11-21T15:16:32;3.80;;;3.50;;
6642;SDS011;3357;48.050;7.800;2023-11-21T15:18:58;14.57;;;7.70;;
6642;SDS011;3357;48.050;7.800;2023-11-21T15:21:23;8.17;;;4.80;;
6642;SDS011;3357;48.050;7.800;2023-11-21T15:23:49;7.60;;;5.30;;
6642;SDS011;3357;48.050;7.800;2023-11-21T15:26:15;4.03;;;3.70;;
6642;SDS011;3357;48.050;7.800;2023-11-21T15:28:40;2.70;;;2.50;;
6642;SDS011;3357;48.050;7.800;2023-11-21T15:31:05;3.07;;;2.37;;